CVLO2: Caney R. Collinsville,Ok

Data processed at Fri Jun 05 2020 23:55


All information presented herein is the property of the government of the United States of America and may be revised or deleted at any time without prior notice.
Dissemination of this information without the expressed written consent of the Public Affairs Office, Tulsa District U.S. Army Corps of Engineers is strictly prohibited.
These data are gathered electronically and, as presented, have not undergone any form of quality control. These data are not guaranteed to be valid or correct.
Go to home page.
Go to station list.
Go to home page.

Upstream stations:

Downstream station:
Previous Day
Next Day
Current Day
    
SHEF ID:       CVLO2     Caney River near Collinsville, O
STATION TYPE:  
Regulating: Stage =    26.00, Flow =    13750

               PRECIP     STAGE  RIV-FLOW  BAT-LOAD
                   in        ft       cfs      volt
              Ccp-Rev   Ccp-Rev   Ccp-Rev   Ccp-Rev
(US/Central)
06/05 00:00      0.00     14.60      4203     12.48
06/05 01:00      0.00     14.59      4195     12.47
06/05 02:00      0.00     14.58      4187     12.45
06/05 03:00      0.00     14.58      4187     12.44
06/05 04:00      0.00     14.58      4187     12.42
06/05 05:00      0.00     14.57      4180     12.40
06/05 06:00      0.00     14.56      4172     12.40
06/05 07:00      0.00     14.56      4172     12.38
06/05 08:00      0.00     14.55      4165     12.54
06/05 09:00      0.00     14.52      4142     13.05
06/05 10:00      0.00     14.51      4134     13.13
06/05 11:00      0.00     14.51      4134     13.10
06/05 12:00      0.00     14.50      4127     13.11
06/05 13:00      0.00     14.48      4111     13.13
06/05 14:00      0.00     14.49      4119     13.07
06/05 15:00      0.00     14.48      4111     13.07
06/05 16:00      0.00     14.48      4111     13.06
06/05 17:00      0.00     14.48      4111     13.06
06/05 18:00      0.00     14.48      4111     13.11
06/05 19:00      0.00     14.47      4104     13.19
06/05 20:00      0.00     14.47      4104     12.63
06/05 21:00      0.00     14.47      4104     12.49
06/05 22:00      0.00     14.47      4104     12.49
06/05 23:00      ----      ----      ----      ----